Aviation Digital Data Service (ADDS)

Output produced by METARs form (1124 UTC 19 February 2019)
found at http://www.aviationweather.gov/metar/data/
 
Forecast for: LOWI (INNSBRUCK AIRPOR, AT)
Text: TAF LOWI 191115Z 1912/2012 27005KT CAVOK TX11/1914Z TNM02/2005Z
Forecast period: 1200 UTC 19 February 2019 to 1200 UTC 20 February 2019
Forecast type: FROM: standard forecast or significant change
Winds: from the W (270 degrees) at 6 MPH (5 knots; 2.6 m/s)
Visibility: 6 or more miles 10+ km)
Ceiling: unknown
Clouds: missing
Weather: no significant weather forecast for this period